Time;durP1;ratioP1;P1;durP2;ratioP2;P2;SDS_P1;SDS_P2;PMS_P1;PMS_P2;Temp;Humidity;BMP_temperature;BMP_pressure;BME280_temperature;BME280_humidity;BME280_pressure;Samples;Min_cycle;Max_cycle;Signal;HPM_P1;HPM_P2
2023/09/01 00:01:00;;;;;;;8.20;4.00;;;14.50;80.90;;;;;;9177415;19;20051;-71
2023/09/01 00:04:26;;;;;;;8.95;3.80;;;14.50;80.60;;;;;;9179277;19;20018;-70
2023/09/01 00:07:35;;;;;;;18.02;3.85;;;14.50;81.20;;;;;;9179335;19;20023;-70
2023/09/01 00:10:42;;;;;;;8.90;4.28;;;14.50;81.40;;;;;;9178847;19;20014;-69
2023/09/01 00:13:48;;;;;;;8.18;4.35;;;14.50;81.70;;;;;;9178334;19;20011;-70
2023/09/01 00:16:55;;;;;;;8.30;4.78;;;14.50;81.70;;;;;;9177170;19;20014;-70
2023/09/01 00:20:00;;;;;;;5.97;4.00;;;14.50;81.90;;;;;;9177133;19;20440;-70
2023/09/01 00:23:11;;;;;;;24.77;5.22;;;14.50;82.40;;;;;;9178736;19;20019;-71
2023/09/01 00:26:16;;;;;;;6.93;4.45;;;14.50;82.70;;;;;;9174436;19;20497;-72
2023/09/01 00:29:27;;;;;;;7.97;3.83;;;14.40;82.50;;;;;;9177282;19;20014;-70
2023/09/01 00:32:38;;;;;;;9.00;4.05;;;14.50;82.70;;;;;;9177899;19;20014;-71
2023/09/01 00:35:45;;;;;;;8.07;3.25;;;14.50;83.30;;;;;;9178081;19;20023;-71
2023/09/01 00:38:53;;;;;;;6.70;3.63;;;14.50;84.20;;;;;;9177650;19;20014;-70
2023/09/01 00:42:04;;;;;;;6.35;3.72;;;14.40;88.10;;;;;;9178513;19;20041;-72
2023/09/01 00:45:11;;;;;;;14.70;4.35;;;14.40;82.90;;;;;;9177485;19;20366;-71
2023/09/01 00:48:19;;;;;;;9.82;4.32;;;14.40;82.80;;;;;;9175473;19;20019;-72
2023/09/01 00:51:26;;;;;;;10.32;4.15;;;14.40;83.70;;;;;;9176959;19;20010;-71
2023/09/01 00:54:36;;;;;;;8.77;4.47;;;14.40;83.40;;;;;;9177417;19;20015;-70
2023/09/01 00:57:41;;;;;;;9.88;4.18;;;14.50;83.40;;;;;;9177518;19;20014;-71
2023/09/01 01:00:48;;;;;;;8.88;4.40;;;14.40;83.40;;;;;;9175470;19;20363;-70
2023/09/01 01:03:54;;;;;;;6.20;4.43;;;14.40;84.00;;;;;;9176638;19;20070;-70
2023/09/01 01:07:08;;;;;;;12.10;4.20;;;14.40;83.80;;;;;;9177596;19;20029;-70
2023/09/01 01:10:21;;;;;;;9.60;4.63;;;14.40;84.50;;;;;;9177186;19;20042;-70
2023/09/01 01:13:34;;;;;;;9.45;4.13;;;14.40;84.40;;;;;;9176690;19;20086;-71
2023/09/01 01:16:40;;;;;;;11.73;5.75;;;14.40;84.80;;;;;;9174277;19;20023;-71
2023/09/01 01:19:53;;;;;;;12.48;5.15;;;14.50;85.30;;;;;;9174713;19;20026;-71
2023/09/01 01:23:09;;;;;;;10.27;5.10;;;14.40;85.60;;;;;;9176606;19;20015;-71
2023/09/01 01:26:18;;;;;;;9.57;5.13;;;14.40;86.00;;;;;;9173693;19;20018;-71
2023/09/01 01:29:23;;;;;;;8.40;5.30;;;14.40;85.50;;;;;;9185058;19;20672;-70
2023/09/01 01:32:31;;;;;;;9.10;4.57;;;14.40;86.00;;;;;;9184542;19;20115;-71
2023/09/01 01:35:43;;;;;;;11.82;5.68;;;14.40;86.10;;;;;;9184566;19;20018;-70
2023/09/01 01:38:59;;;;;;;6.65;4.78;;;14.30;85.90;;;;;;9184852;19;20030;-70
2023/09/01 01:42:09;;;;;;;9.73;5.57;;;14.40;86.00;;;;;;9181986;19;20030;-70
2023/09/01 01:45:20;;;;;;;9.05;5.72;;;14.40;86.70;;;;;;9183658;19;20014;-69
2023/09/01 01:48:26;;;;;;;9.82;5.22;;;14.40;87.10;;;;;;9185015;19;20018;-69
2023/09/01 01:51:33;;;;;;;18.20;5.70;;;14.40;87.70;;;;;;9183018;19;20103;-71
2023/09/01 01:54:41;;;;;;;18.55;7.70;;;14.30;88.10;;;;;;9183991;19;20019;-70
2023/09/01 01:57:48;;;;;;;17.90;7.57;;;14.40;88.90;;;;;;9184245;19;20019;-70
2023/09/01 02:00:53;;;;;;;16.20;6.97;;;14.30;90.20;;;;;;9181997;19;20014;-70
2023/09/01 02:04:05;;;;;;;11.85;5.90;;;14.30;90.90;;;;;;9183053;19;20026;-72
2023/09/01 02:07:10;;;;;;;11.73;5.75;;;14.10;89.10;;;;;;9184700;19;20015;-72
2023/09/01 02:10:20;;;;;;;9.52;5.97;;;14.30;89.00;;;;;;9183902;19;20014;-70
2023/09/01 02:13:25;;;;;;;9.57;5.72;;;14.30;88.50;;;;;;9180285;19;20025;-70
2023/09/01 02:16:33;;;;;;;8.77;5.80;;;;;;;;;;9183958;19;20022;-72
2023/09/01 02:19:38;;;;;;;14.57;6.40;;;14.20;79.80;;;;;;9183027;19;20026;-72
2023/09/01 02:22:47;;;;;;;11.70;5.65;;;14.20;80.00;;;;;;9183651;19;20021;-70
2023/09/01 02:25:57;;;;;;;9.15;5.25;;;14.20;80.00;;;;;;9178961;19;20010;-69
2023/09/01 02:29:04;;;;;;;14.30;5.97;;;14.20;80.00;;;;;;9183453;19;20010;-70
2023/09/01 02:32:12;;;;;;;8.65;5.88;;;14.20;80.00;;;;;;9183612;19;20026;-71
2023/09/01 02:35:17;;;;;;;13.10;6.05;;;14.20;80.00;;;;;;9183486;19;20090;-69
2023/09/01 02:38:25;;;;;;;11.20;6.03;;;14.20;80.10;;;;;;9180126;19;20010;-71
2023/09/01 02:41:33;;;;;;;18.83;5.97;;;14.20;80.00;;;;;;9182591;19;20029;-71
2023/09/01 02:44:40;;;;;;;10.05;5.47;;;14.10;80.00;;;;;;9182586;19;20769;-70
2023/09/01 02:47:46;;;;;;;11.40;6.25;;;14.20;80.00;;;;;;9180696;19;20018;-72
2023/09/01 02:50:53;;;;;;;8.70;5.82;;;14.20;80.00;;;;;;9180321;19;20022;-70
2023/09/01 02:53:58;;;;;;;13.73;6.53;;;14.20;80.00;;;;;;9181826;19;20023;-70
2023/09/01 02:57:08;;;;;;;14.43;6.25;;;14.20;80.10;;;;;;9182474;19;20479;-70
2023/09/01 03:00:18;;;;;;;11.50;6.78;;;14.10;80.10;;;;;;9182079;19;20003;-71
2023/09/01 03:03:29;;;;;;;13.32;6.63;;;14.10;80.10;;;;;;9182481;19;20026;-71
2023/09/01 03:06:35;;;;;;;11.73;6.47;;;14.10;80.10;;;;;;9182242;19;20018;-70
2023/09/01 03:09:43;;;;;;;11.82;6.60;;;14.10;80.10;;;;;;9178908;19;20026;-70
2023/09/01 03:12:51;;;;;;;15.30;6.78;;;14.10;80.10;;;;;;9182117;19;20026;-70
2023/09/01 03:15:59;;;;;;;12.40;7.38;;;14.00;80.20;;;;;;9181282;19;20078;-70
2023/09/01 03:19:08;;;;;;;10.75;7.53;;;14.00;80.20;;;;;;9181386;19;20053;-71
2023/09/01 03:22:15;;;;;;;10.80;6.60;;;14.00;80.20;;;;;;9179040;19;20019;-71
2023/09/01 03:25:21;;;;;;;14.00;6.68;;;14.00;80.20;;;;;;9179355;19;20019;-69
2023/09/01 03:28:31;;;;;;;9.23;7.32;;;14.00;80.20;;;;;;9175010;19;20476;-71
2023/09/01 03:31:37;;;;;;;14.77;7.72;;;13.90;80.30;;;;;;9181096;19;20021;-69
2023/09/01 03:34:45;;;;;;;14.48;8.45;;;13.90;80.30;;;;;;9180419;19;20018;-70
2023/09/01 03:37:50;;;;;;;16.33;8.18;;;13.90;80.40;;;;;;9178446;19;20360;-68
2023/09/01 03:40:58;;;;;;;12.30;7.75;;;13.90;80.40;;;;;;9178104;19;20357;-71
2023/09/01 03:44:06;;;;;;;14.68;8.55;;;13.90;80.40;;;;;;9178421;19;20029;-70
2023/09/01 03:47:14;;;;;;;13.48;8.40;;;13.80;80.50;;;;;;9178772;19;20494;-70
2023/09/01 03:50:19;;;;;;;12.25;7.78;;;13.80;80.50;;;;;;9177188;19;20085;-72
2023/09/01 03:53:26;;;;;;;12.05;7.40;;;13.80;80.50;;;;;;9179339;19;20010;-70
2023/09/01 03:56:32;;;;;;;12.52;7.93;;;13.80;80.50;;;;;;9177845;19;20577;-70
2023/09/01 03:59:44;;;;;;;15.95;8.70;;;13.80;80.50;;;;;;9179760;19;20022;-69
2023/09/01 04:02:49;;;;;;;14.85;8.00;;;13.70;80.60;;;;;;9178003;19;20385;-70
2023/09/01 04:05:59;;;;;;;11.02;7.45;;;13.70;80.60;;;;;;9177202;19;20007;-69
2023/09/01 04:09:04;;;;;;;14.50;7.55;;;13.70;80.70;;;;;;9179593;19;20112;-69
2023/09/01 04:12:12;;;;;;;12.77;7.50;;;13.70;80.70;;;;;;9179141;19;20476;-70
2023/09/01 04:15:19;;;;;;;12.95;7.80;;;13.70;80.80;;;;;;9176813;19;20368;-71
2023/09/01 04:18:28;;;;;;;18.70;7.88;;;13.70;80.80;;;;;;9179577;19;20018;-69
2023/09/01 04:21:34;;;;;;;14.57;7.65;;;13.60;80.70;;;;;;9175978;19;20018;-69
2023/09/01 04:24:43;;;;;;;16.20;7.22;;;13.70;80.80;;;;;;9176967;19;20026;-70
2023/09/01 04:27:48;;;;;;;16.17;8.10;;;13.60;80.70;;;;;;9174574;19;20014;-69
2023/09/01 04:30:59;;;;;;;12.48;7.53;;;13.60;80.80;;;;;;9176557;19;20018;-69
2023/09/01 04:34:07;;;;;;;15.05;7.88;;;13.60;80.80;;;;;;9176257;19;20135;-70
2023/09/01 04:37:15;;;;;;;12.57;8.23;;;13.60;80.90;;;;;;9176376;19;20021;-70
2023/09/01 04:40:20;;;;;;;18.20;9.27;;;13.50;80.90;;;;;;9176264;19;20464;-70
2023/09/01 04:43:29;;;;;;;11.98;7.47;;;13.50;80.90;;;;;;9176289;19;20014;-69
2023/09/01 04:46:38;;;;;;;13.10;7.30;;;13.60;81.10;;;;;;9177668;19;20047;-70
2023/09/01 04:49:46;;;;;;;14.52;7.38;;;13.50;81.10;;;;;;9175946;19;20011;-71
2023/09/01 04:52:53;;;;;;;18.55;8.25;;;13.50;81.30;;;;;;9175677;19;20060;-70
2023/09/01 04:56:01;;;;;;;16.48;8.70;;;13.60;84.50;;;;;;9176004;19;20015;-69
2023/09/01 04:59:06;;;;;;;11.48;8.57;;;13.60;81.20;;;;;;9175331;19;20014;-69
2023/09/01 05:02:17;;;;;;;18.35;9.82;;;13.60;81.20;;;;;;9184278;19;20029;-70
2023/09/01 05:05:22;;;;;;;14.75;8.27;;;13.50;81.20;;;;;;9192686;19;20014;-70
2023/09/01 05:08:29;;;;;;;18.67;9.05;;;13.60;81.30;;;;;;9190251;19;20011;-70
2023/09/01 05:11:35;;;;;;;18.38;9.10;;;13.70;81.40;;;;;;9186884;19;20085;-72
2023/09/01 05:14:42;;;;;;;17.75;9.52;;;13.60;81.40;;;;;;9188218;19;20029;-69
2023/09/01 05:17:50;;;;;;;16.33;9.60;;;13.60;81.50;;;;;;9187982;19;20018;-69
2023/09/01 05:20:58;;;;;;;13.32;8.55;;;13.60;82.00;;;;;;9187062;19;20376;-70
2023/09/01 05:24:04;;;;;;;16.20;9.30;;;13.60;83.30;;;;;;9180963;19;20043;-70
2023/09/01 05:27:12;;;;;;;20.73;9.98;;;13.70;82.10;;;;;;9187854;19;20030;-71
2023/09/01 05:30:17;;;;;;;15.18;10.23;;;13.80;85.40;;;;;;9192186;19;20018;-70
2023/09/01 05:33:27;;;;;;;14.13;9.23;;;13.60;81.70;;;;;;9192169;19;20468;-69
2023/09/01 05:36:32;;;;;;;22.27;10.25;;;13.70;82.10;;;;;;9193595;19;20470;-70
2023/09/01 05:39:40;;;;;;;23.90;10.15;;;13.80;82.20;;;;;;9194070;19;20011;-69
2023/09/01 05:42:45;;;;;;;18.50;9.73;;;13.70;82.00;;;;;;9191618;19;20025;-70
2023/09/01 05:45:53;;;;;;;13.23;9.20;;;14.00;82.80;;;;;;9193361;19;20018;-69
2023/09/01 05:49:05;;;;;;;16.50;9.32;;;13.80;81.90;;;;;;9189674;19;20068;-70
2023/09/01 05:52:12;;;;;;;19.02;9.50;;;13.80;82.00;;;;;;9193110;19;20011;-69
2023/09/01 05:55:17;;;;;;;18.55;8.60;;;13.80;82.00;;;;;;9193030;19;20013;-70
2023/09/01 05:58:25;;;;;;;13.50;8.77;;;13.90;82.10;;;;;;9190984;19;20010;-70
2023/09/01 06:01:35;;;;;;;13.93;9.57;;;13.90;83.00;;;;;;9192798;19;20352;-70
2023/09/01 06:04:45;;;;;;;15.90;8.77;;;14.10;86.80;;;;;;9189867;19;20018;-70
2023/09/01 06:07:51;;;;;;;13.82;9.05;;;14.00;85.20;;;;;;9193043;19;20493;-70
2023/09/01 06:11:06;;;;;;;15.77;10.20;;;14.00;82.50;;;;;;9192583;19;20014;-70
2023/09/01 06:14:12;;;;;;;16.25;10.15;;;14.20;85.10;;;;;;9186142;19;20024;-71
2023/09/01 06:17:19;;;;;;;26.67;14.40;;;14.20;83.90;;;;;;9183539;19;20053;-71
2023/09/01 06:20:42;;;;;;;19.17;10.98;;;14.10;81.70;;;;;;9183560;19;20007;-71
2023/09/01 06:23:50;;;;;;;21.95;10.18;;;14.20;82.40;;;;;;9182553;19;20030;-71
2023/09/01 06:26:56;;;;;;;20.33;9.68;;;14.20;82.30;;;;;;9178197;19;20455;-70
2023/09/01 06:30:03;;;;;;;21.88;10.73;;;14.30;82.40;;;;;;9183609;19;20022;-70
2023/09/01 06:33:09;;;;;;;19.77;9.75;;;14.30;82.40;;;;;;9183582;19;20006;-70
2023/09/01 06:36:19;;;;;;;18.88;9.45;;;14.40;82.50;;;;;;9182691;19;20018;-70
2023/09/01 06:39:24;;;;;;;23.70;9.93;;;14.40;82.60;;;;;;9183487;19;20026;-70
2023/09/01 06:42:32;;;;;;;19.40;9.77;;;14.40;82.50;;;;;;9182406;19;20488;-71
2023/09/01 06:45:37;;;;;;;18.92;10.18;;;14.40;82.50;;;;;;9184128;19;20044;-71
2023/09/01 06:48:45;;;;;;;20.23;10.43;;;14.50;82.60;;;;;;9181107;19;20022;-70
2023/09/01 06:51:53;;;;;;;19.05;9.63;;;14.50;82.60;;;;;;9182418;19;20085;-69
2023/09/01 06:55:00;;;;;;;18.30;9.40;;;14.60;82.70;;;;;;9180163;19;20673;-70
2023/09/01 06:58:06;;;;;;;19.92;10.23;;;14.60;82.60;;;;;;9182209;19;20384;-70
2023/09/01 07:01:15;;;;;;;30.35;11.60;;;14.60;82.70;;;;;;9182516;19;20019;-69
2023/09/01 07:04:21;;;;;;;17.35;9.88;;;14.70;82.70;;;;;;9180733;19;20022;-72
2023/09/01 07:07:31;;;;;;;23.05;10.50;;;14.80;82.80;;;;;;9181837;19;20025;-70
2023/09/01 07:10:36;;;;;;;21.60;9.30;;;14.80;82.80;;;;;;9181620;19;20010;-73
2023/09/01 07:13:44;;;;;;;19.23;11.15;;;15.10;83.00;;;;;;9182324;19;20018;-71
2023/09/01 07:16:50;;;;;;;23.90;10.32;;;14.90;82.90;;;;;;9182737;19;20029;-72
2023/09/01 07:19:57;;;;;;;19.52;9.82;;;15.00;83.00;;;;;;9181667;19;20104;-71
2023/09/01 07:23:05;;;;;;;23.02;9.65;;;15.00;82.90;;;;;;9181810;19;20053;-72
2023/09/01 07:26:13;;;;;;;15.73;9.43;;;15.20;83.10;;;;;;9175843;19;20025;-70
2023/09/01 07:29:26;;;;;;;18.13;9.20;;;15.20;83.00;;;;;;9178723;19;20010;-71
2023/09/01 07:32:34;;;;;;;22.05;9.68;;;15.30;83.00;;;;;;9180335;19;20018;-71
2023/09/01 07:35:39;;;;;;;21.88;9.85;;;15.40;83.20;;;;;;9180698;19;20006;-71
2023/09/01 07:38:50;;;;;;;17.48;10.02;;;15.40;83.00;;;;;;9179936;19;20021;-70
2023/09/01 07:41:55;;;;;;;12.40;8.93;;;15.50;83.10;;;;;;9179079;19;20098;-71
2023/09/01 07:45:04;;;;;;;14.93;8.73;;;15.60;83.10;;;;;;9161951;19;20011;-70
2023/09/01 07:48:10;;;;;;;19.58;8.65;;;15.70;83.20;;;;;;9177052;19;20025;-71
2023/09/01 07:51:21;;;;;;;18.33;8.55;;;15.80;83.60;;;;;;9173584;19;20013;-71
2023/09/01 07:54:28;;;;;;;18.88;11.38;;;15.90;84.40;;;;;;9165850;19;20014;-71
2023/09/01 07:57:36;;;;;;;21.77;8.85;;;15.80;83.50;;;;;;9165491;19;20014;-72
2023/09/01 08:00:42;;;;;;;17.80;8.18;;;16.00;82.80;;;;;;9165166;19;20018;-70
2023/09/01 08:03:49;;;;;;;23.08;8.82;;;16.10;82.80;;;;;;9165212;19;20022;-71
2023/09/01 08:06:54;;;;;;;16.83;7.93;;;16.10;82.80;;;;;;9168021;19;20095;-71
2023/09/01 08:10:05;;;;;;;17.23;8.00;;;16.20;82.80;;;;;;9178212;19;20094;-71
2023/09/01 08:13:10;;;;;;;22.08;7.80;;;16.50;83.00;;;;;;9178583;19;20018;-72
2023/09/01 08:16:18;;;;;;;11.27;7.13;;;16.30;82.80;;;;;;9178105;19;20412;-73
2023/09/01 08:19:23;;;;;;;17.17;7.35;;;16.40;82.80;;;;;;9178836;19;20022;-72
2023/09/01 08:22:31;;;;;;;18.00;8.35;;;16.50;82.80;;;;;;9178575;19;20811;-70
2023/09/01 08:25:39;;;;;;;16.40;8.10;;;16.50;82.70;;;;;;9176121;19;20102;-71
2023/09/01 08:28:47;;;;;;;13.27;7.82;;;16.70;82.80;;;;;;9178039;19;20015;-71
2023/09/01 08:31:53;;;;;;;17.65;9.30;;;16.70;82.80;;;;;;9176672;19;20078;-72
2023/09/01 08:35:01;;;;;;;18.13;8.02;;;16.80;82.70;;;;;;9177057;19;20018;-71
2023/09/01 08:38:06;;;;;;;19.17;8.18;;;16.90;82.60;;;;;;9175626;19;20537;-72
2023/09/01 08:41:16;;;;;;;17.20;8.25;;;17.00;82.60;;;;;;9177899;19;20090;-69
2023/09/01 08:44:24;;;;;;;18.83;8.20;;;17.00;82.50;;;;;;9173234;19;20020;-69
2023/09/01 08:47:40;;;;;;;20.13;7.70;;;17.10;82.50;;;;;;9170655;19;20010;-69
2023/09/01 08:50:46;;;;;;;14.25;7.65;;;17.20;82.40;;;;;;9175392;19;20013;-72
2023/09/01 08:53:54;;;;;;;23.38;8.80;;;17.20;82.40;;;;;;9174839;19;20018;-68
2023/09/01 08:57:02;;;;;;;18.92;7.68;;;17.30;82.40;;;;;;9174708;19;20353;-71
2023/09/01 09:00:11;;;;;;;18.85;7.97;;;17.30;82.30;;;;;;9174396;19;20007;-71
2023/09/01 09:03:19;;;;;;;26.58;9.32;;;17.40;82.20;;;;;;9173891;19;20018;-70
2023/09/01 09:06:37;;;;;;;19.30;9.27;;;17.40;82.20;;;;;;9170715;19;20021;-69
2023/09/01 09:09:52;;;;;;;18.40;7.97;;;17.50;82.20;;;;;;9171324;19;20011;-69
2023/09/01 09:13:06;;;;;;;21.42;7.28;;;17.50;82.10;;;;;;9174719;19;20506;-73
2023/09/01 09:16:13;;;;;;;20.90;7.65;;;17.60;82.10;;;;;;9174217;19;20015;-72
2023/09/01 09:19:21;;;;;;;21.98;8.02;;;17.60;81.80;;;;;;9173969;19;20033;-73
2023/09/01 09:22:27;;;;;;;16.88;7.18;;;17.70;81.90;;;;;;9166847;19;20030;-70
2023/09/01 09:25:36;;;;;;;12.52;6.47;;;17.70;81.80;;;;;;9169329;19;20025;-75
2023/09/01 09:28:46;;;;;;;13.73;6.00;;;17.80;81.80;;;;;;9171061;19;20417;-71
2023/09/01 09:31:55;;;;;;;17.02;7.18;;;17.70;81.70;;;;;;9172050;19;20030;-72
2023/09/01 09:35:11;;;;;;;22.98;7.95;;;17.90;81.50;;;;;;9174706;19;20105;-66
2023/09/01 09:38:21;;;;;;;15.35;5.35;;;17.90;81.50;;;;;;9174647;19;20010;-71
2023/09/01 09:41:26;;;;;;;11.30;5.43;;;17.90;81.30;;;;;;9171165;19;20021;-68
2023/09/01 09:44:37;;;;;;;21.27;5.85;;;18.00;81.20;;;;;;9174037;19;20019;-69
2023/09/01 09:47:42;;;;;;;14.23;5.60;;;18.00;81.20;;;;;;9175836;19;20512;-69
2023/09/01 09:50:52;;;;;;;16.73;5.82;;;18.00;81.30;;;;;;9182766;19;20022;-69
2023/09/01 09:53:59;;;;;;;13.77;5.35;;;18.00;81.00;;;;;;9184338;19;20018;-68
2023/09/01 09:57:09;;;;;;;18.50;5.82;;;18.00;80.90;;;;;;9184130;19;20019;-71
2023/09/01 10:00:18;;;;;;;11.93;5.45;;;18.10;80.90;;;;;;9181032;19;20483;-69
2023/09/01 10:03:31;;;;;;;16.80;5.65;;;18.10;80.80;;;;;;9182788;19;20021;-70
2023/09/01 10:06:39;;;;;;;15.23;5.20;;;18.10;80.80;;;;;;9181330;19;20384;-67
2023/09/01 10:09:46;;;;;;;12.45;5.60;;;18.20;80.80;;;;;;9182831;19;20019;-70
2023/09/01 10:12:53;;;;;;;10.57;5.50;;;18.20;80.70;;;;;;9182208;19;20040;-69
2023/09/01 10:16:03;;;;;;;13.90;5.35;;;18.20;80.70;;;;;;9182316;19;20014;-71
2023/09/01 10:19:09;;;;;;;11.80;5.40;;;18.30;82.60;;;;;;9183423;19;20018;-69
2023/09/01 10:22:18;;;;;;;13.35;5.85;;;18.20;80.40;;;;;;9183959;19;20034;-68
2023/09/01 10:25:23;;;;;;;15.35;6.50;;;18.30;80.40;;;;;;9181589;19;20018;-68
2023/09/01 10:28:31;;;;;;;11.43;6.07;;;18.30;80.30;;;;;;9176277;19;20019;-69
2023/09/01 10:31:39;;;;;;;15.27;5.72;;;18.30;80.40;;;;;;9182823;19;20018;-67
2023/09/01 10:34:53;;;;;;;13.57;5.43;;;18.30;80.20;;;;;;9183328;19;20041;-68
2023/09/01 10:38:11;;;;;;;16.83;5.78;;;18.40;80.30;;;;;;9181122;19;20018;-69
2023/09/01 10:41:49;;;;;;;14.77;4.85;;;18.30;80.20;;;;;;9181526;19;20014;-69
2023/09/01 10:45:13;;;;;;;8.60;5.35;;;18.40;80.10;;;;;;9180095;19;20074;-74
2023/09/01 10:48:49;;;;;;;13.68;5.43;;;18.70;80.30;;;;;;9179302;19;20010;-72
2023/09/01 10:52:15;;;;;;;14.60;5.00;;;18.50;80.20;;;;;;9177313;19;20017;-76
2023/09/01 10:55:23;;;;;;;17.30;5.15;;;18.50;80.20;;;;;;9180880;19;20078;-72
2023/09/01 10:58:40;;;;;;;16.10;5.32;;;18.50;80.30;;;;;;9179720;19;20479;-72
2023/09/01 11:01:47;;;;;;;11.60;5.13;;;18.60;81.60;;;;;;9182353;19;20014;-72
2023/09/01 11:04:55;;;;;;;11.15;4.68;;;18.50;79.90;;;;;;9182083;19;20019;-74
2023/09/01 11:08:15;;;;;;;10.57;4.55;;;18.50;79.90;;;;;;9180718;19;20018;-73
2023/09/01 11:11:21;;;;;;;11.77;5.40;;;18.60;79.80;;;;;;9179985;19;20025;-73
2023/09/01 11:14:29;;;;;;;11.90;5.68;;;18.60;79.80;;;;;;9181554;19;20030;-73
2023/09/01 11:17:37;;;;;;;9.20;4.97;;;18.60;79.80;;;;;;9181816;19;20010;-73
2023/09/01 11:20:48;;;;;;;8.50;5.03;;;18.60;79.70;;;;;;9181043;19;20019;-73
2023/09/01 11:23:59;;;;;;;10.68;5.30;;;18.60;79.60;;;;;;9180976;19;20022;-72
2023/09/01 11:27:07;;;;;;;14.43;6.72;;;18.60;79.60;;;;;;9172709;19;20026;-73
2023/09/01 11:30:13;;;;;;;9.77;5.43;;;18.70;79.60;;;;;;9179545;19;20357;-73
2023/09/01 11:33:20;;;;;;;9.90;5.25;;;18.70;79.60;;;;;;9178772;19;20350;-72
2023/09/01 11:36:28;;;;;;;10.57;5.40;;;18.60;79.60;;;;;;9175341;19;20019;-71
2023/09/01 11:39:35;;;;;;;13.25;5.78;;;18.70;79.60;;;;;;9178076;19;20017;-72
2023/09/01 11:42:42;;;;;;;13.00;5.95;;;18.60;79.60;;;;;;9178013;19;20018;-73
2023/09/01 11:45:50;;;;;;;11.73;6.43;;;18.70;79.60;;;;;;9178936;19;20530;-73
2023/09/01 11:48:55;;;;;;;13.57;6.00;;;18.70;79.60;;;;;;9177747;19;20022;-72
2023/09/01 11:52:05;;;;;;;15.57;6.45;;;18.70;79.60;;;;;;9179390;19;20058;-72
2023/09/01 11:55:11;;;;;;;10.75;5.97;;;18.70;79.60;;;;;;9179242;19;20677;-74
2023/09/01 11:58:18;;;;;;;13.73;6.15;;;18.80;79.70;;;;;;9179066;19;20468;-72
2023/09/01 12:01:25;;;;;;;10.82;5.72;;;18.80;79.60;;;;;;9179277;19;20100;-71
2023/09/01 12:04:33;;;;;;;12.35;6.28;;;18.80;79.50;;;;;;9178558;19;20014;-74
2023/09/01 12:07:41;;;;;;;12.98;6.10;;;18.80;79.40;;;;;;9177100;19;20022;-73
2023/09/01 12:10:48;;;;;;;11.32;5.88;;;18.90;79.50;;;;;;9178714;19;20021;-73
2023/09/01 12:13:54;;;;;;;16.95;5.82;;;18.90;79.40;;;;;;9178544;19;20018;-73
2023/09/01 12:17:04;;;;;;;13.23;6.00;;;18.90;79.30;;;;;;9178899;19;20018;-74
2023/09/01 12:20:10;;;;;;;13.85;6.53;;;19.00;79.40;;;;;;9179299;19;20380;-73
2023/09/01 12:23:27;;;;;;;14.77;6.57;;;19.00;79.30;;;;;;9177333;19;20018;-73
2023/09/01 12:26:34;;;;;;;13.45;6.35;;;19.10;79.30;;;;;;9173688;19;20022;-74
2023/09/01 12:29:41;;;;;;;12.38;6.03;;;19.10;79.30;;;;;;9178315;19;20010;-73
2023/09/01 12:32:47;;;;;;;14.18;6.05;;;19.10;79.40;;;;;;9174924;19;20049;-73
2023/09/01 12:35:55;;;;;;;11.68;6.72;;;19.10;79.30;;;;;;9178055;19;20514;-72
2023/09/01 12:39:03;;;;;;;11.27;6.63;;;19.20;79.30;;;;;;9177370;19;20019;-73
2023/09/01 12:42:10;;;;;;;15.10;7.28;;;19.20;79.30;;;;;;9178165;19;20014;-73
2023/09/01 12:45:15;;;;;;;11.27;6.70;;;19.20;79.30;;;;;;9177946;19;20417;-74
2023/09/01 12:48:23;;;;;;;12.55;6.40;;;19.20;79.40;;;;;;9174949;19;20015;-73
2023/09/01 12:51:28;;;;;;;16.90;7.43;;;19.30;79.50;;;;;;9177872;19;20022;-74
2023/09/01 12:54:38;;;;;;;13.18;6.55;;;19.30;79.40;;;;;;9178081;19;20021;-73
2023/09/01 12:57:43;;;;;;;12.50;6.30;;;19.40;79.40;;;;;;9179012;19;20014;-73
2023/09/01 13:00:51;;;;;;;14.38;6.63;;;19.40;79.30;;;;;;9176420;19;20010;-72
2023/09/01 13:03:56;;;;;;;13.73;5.32;;;19.40;79.30;;;;;;9177029;19;20031;-71
2023/09/01 13:07:04;;;;;;;12.32;5.57;;;19.50;79.30;;;;;;9176116;19;20883;-73
2023/09/01 13:10:13;;;;;;;12.40;6.38;;;19.50;79.30;;;;;;9176784;19;20068;-72
2023/09/01 13:13:21;;;;;;;9.32;5.43;;;19.60;79.20;;;;;;9176446;19;20033;-73
2023/09/01 13:16:32;;;;;;;8.73;5.65;;;19.60;79.20;;;;;;9177169;19;20113;-72
2023/09/01 13:19:40;;;;;;;11.70;6.32;;;19.60;79.10;;;;;;9176798;19;20036;-74
2023/09/01 13:22:45;;;;;;;12.73;6.05;;;19.70;79.00;;;;;;9179821;19;20011;-74
2023/09/01 13:25:55;;;;;;;13.25;6.95;;;19.80;79.00;;;;;;9181189;19;20011;-72
2023/09/01 13:29:02;;;;;;;15.18;5.35;;;19.80;78.90;;;;;;9182925;19;20014;-73
2023/09/01 13:32:09;;;;;;;10.50;5.80;;;19.90;78.90;;;;;;9185396;19;20026;-70
2023/09/01 13:35:14;;;;;;;9.65;6.10;;;19.90;78.80;;;;;;9185653;19;20025;-74
2023/09/01 13:38:22;;;;;;;14.30;5.30;;;20.00;78.70;;;;;;9184895;19;20022;-72
2023/09/01 13:41:30;;;;;;;14.02;6.57;;;20.10;78.70;;;;;;9182405;19;20017;-72
2023/09/01 13:44:38;;;;;;;10.93;5.18;;;20.20;78.50;;;;;;9184863;19;20587;-72
2023/09/01 13:47:43;;;;;;;12.30;5.70;;;20.20;78.30;;;;;;9182412;19;20018;-72
2023/09/01 13:50:50;;;;;;;8.32;5.40;;;20.30;78.30;;;;;;9184218;19;20024;-72
2023/09/01 13:53:57;;;;;;;12.98;6.00;;;20.40;78.20;;;;;;9183593;19;20018;-72
2023/09/01 13:57:07;;;;;;;9.35;6.00;;;20.40;78.10;;;;;;9183923;19;20015;-71
2023/09/01 14:00:14;;;;;;;12.88;5.82;;;20.50;78.00;;;;;;9179549;19;20139;-72
2023/09/01 14:03:21;;;;;;;12.10;5.45;;;20.50;77.90;;;;;;9182598;19;20011;-72
2023/09/01 14:06:26;;;;;;;12.38;5.22;;;20.60;78.00;;;;;;9183204;19;20675;-71
2023/09/01 14:09:34;;;;;;;12.15;5.72;;;20.60;77.80;;;;;;9182050;19;20026;-73
2023/09/01 14:12:42;;;;;;;8.60;5.10;;;20.60;77.60;;;;;;9183576;19;20564;-72
2023/09/01 14:15:49;;;;;;;10.27;4.97;;;20.70;77.60;;;;;;9184063;19;20014;-72
2023/09/01 14:18:55;;;;;;;12.52;4.80;;;20.70;77.60;;;;;;9183193;19;20019;-74
2023/09/01 14:22:02;;;;;;;11.73;5.43;;;20.70;77.50;;;;;;9183524;19;20019;-72
2023/09/01 14:25:09;;;;;;;9.95;5.35;;;20.70;77.40;;;;;;9179593;19;20026;-72
2023/09/01 14:28:19;;;;;;;12.57;4.82;;;20.80;77.40;;;;;;9177382;19;20022;-73
2023/09/01 14:31:25;;;;;;;9.63;5.05;;;20.70;77.40;;;;;;9183391;19;20121;-74
2023/09/01 14:34:32;;;;;;;11.10;4.90;;;20.90;78.50;;;;;;9180039;19;20115;-72
2023/09/01 14:37:37;;;;;;;8.82;4.80;;;20.80;79.60;;;;;;9180949;19;20007;-73
2023/09/01 14:40:45;;;;;;;6.97;4.55;;;21.00;80.40;;;;;;9182767;19;20030;-71
2023/09/01 14:43:53;;;;;;;9.63;5.15;;;21.00;81.20;;;;;;9182926;19;20018;-73
2023/09/01 14:47:01;;;;;;;7.85;4.68;;;20.90;81.00;;;;;;9182217;19;20032;-72
2023/09/01 14:50:07;;;;;;;11.65;5.10;;;21.00;81.20;;;;;;9177407;19;20011;-72
2023/09/01 14:53:14;;;;;;;8.23;4.90;;;21.00;81.40;;;;;;9181898;19;20010;-73
2023/09/01 14:56:20;;;;;;;9.20;4.65;;;21.10;81.40;;;;;;9182237;19;20503;-73
2023/09/01 14:59:30;;;;;;;9.07;4.72;;;21.00;81.90;;;;;;9182295;19;20011;-72
2023/09/01 15:02:35;;;;;;;7.78;4.50;;;21.00;81.80;;;;;;9181117;19;20018;-72
2023/09/01 15:05:42;;;;;;;9.18;4.22;;;21.00;79.30;;;;;;9182059;19;20025;-73
2023/09/01 15:08:48;;;;;;;10.32;4.35;;;21.10;81.10;;;;;;9179480;19;20018;-72
2023/09/01 15:11:55;;;;;;;10.20;5.18;;;21.00;83.00;;;;;;9179880;19;20018;-72
2023/09/01 15:15:03;;;;;;;10.63;4.93;;;20.90;78.20;;;;;;9179134;19;20428;-74
2023/09/01 15:18:11;;;;;;;11.45;5.43;;;20.90;77.80;;;;;;9179214;19;20026;-73
2023/09/01 15:21:16;;;;;;;9.48;4.32;;;21.00;80.30;;;;;;9175472;19;20364;-72
2023/09/01 15:24:23;;;;;;;8.30;4.90;;;20.80;81.20;;;;;;9178047;19;20018;-74
2023/09/01 15:27:29;;;;;;;7.93;5.22;;;20.90;80.20;;;;;;9173850;19;20060;-71
2023/09/01 15:30:38;;;;;;;10.02;5.57;;;20.80;80.10;;;;;;9177914;19;20018;-73
2023/09/01 15:33:44;;;;;;;13.82;4.25;;;20.90;79.10;;;;;;9180324;19;20020;-74
2023/09/01 15:36:51;;;;;;;11.27;5.47;;;20.80;79.40;;;;;;9180098;19;20022;-74
2023/09/01 15:39:56;;;;;;;9.40;5.25;;;20.80;80.30;;;;;;9177121;19;20022;-71
2023/09/01 15:43:07;;;;;;;11.43;5.18;;;20.90;80.00;;;;;;9176259;19;20018;-71
2023/09/01 15:46:15;;;;;;;8.57;4.95;;;20.80;81.40;;;;;;9174673;19;20509;-72
2023/09/01 15:49:22;;;;;;;10.45;5.57;;;20.80;86.30;;;;;;9175948;19;20021;-71
2023/09/01 15:52:28;;;;;;;10.70;5.07;;;20.80;83.20;;;;;;9177413;19;20572;-72
2023/09/01 15:55:37;;;;;;;9.43;4.97;;;20.50;81.50;;;;;;9176697;19;20371;-73
2023/09/01 15:58:42;;;;;;;10.88;5.07;;;20.80;84.80;;;;;;9177366;19;20010;-73
2023/09/01 16:01:52;;;;;;;8.93;5.10;;;20.70;85.00;;;;;;9177383;19;20015;-72
2023/09/01 16:04:58;;;;;;;8.27;4.40;;;20.70;85.10;;;;;;9168613;19;20021;-74
2023/09/01 16:08:06;;;;;;;17.33;5.20;;;20.70;86.30;;;;;;9167507;19;20013;-72